Time;durP1;ratioP1;P1;durP2;ratioP2;P2;SDS_P1;SDS_P2;PMS_P1;PMS_P2;Temp;Humidity;BMP_temperature;BMP_pressure;BME280_temperature;BME280_humidity;BME280_pressure;Samples;Min_cycle;Max_cycle;Signal;HPM_P1;HPM_P2
2021/01/31 12:48:24;;;;;;;14.03;9.80;;;5.00;99.90;;;;;;5053991;28;20124;-88
2021/01/31 12:50:50;;;;;;;12.47;8.53;;;5.10;99.90;;;;;;5036685;28;20127;-88
2021/01/31 12:53:15;;;;;;;12.30;8.37;;;5.00;99.90;;;;;;5029863;28;20075;-88
2021/01/31 12:56:01;;;;;;;12.73;8.70;;;5.00;99.90;;;;;;5061637;28;20025;-90
2021/01/31 12:58:27;;;;;;;12.43;8.70;;;5.10;99.90;;;;;;5037215;28;20044;-89
2021/01/31 13:00:53;;;;;;;13.47;9.10;;;5.20;99.90;;;;;;5023850;28;20028;-89
2021/01/31 13:03:28;;;;;;;12.70;8.57;;;5.10;99.90;;;;;;5049600;28;20030;-87
2021/01/31 13:05:54;;;;;;;12.97;9.10;;;4.90;99.90;;;;;;5028490;28;20035;-87
2021/01/31 17:06:31;;;;;;;17.93;11.60;;;3.90;99.90;;;;;;5030162;28;20042;-86
2021/01/31 17:08:57;;;;;;;22.03;12.70;;;3.90;99.90;;;;;;5013549;28;20053;-85
2021/01/31 17:11:23;;;;;;;19.93;12.90;;;3.90;99.90;;;;;;5027423;28;20060;-85
2021/01/31 17:13:49;;;;;;;18.40;11.73;;;3.90;99.90;;;;;;5007411;28;20029;-86
2021/01/31 17:16:15;;;;;;;20.93;12.70;;;3.90;99.90;;;;;;5010378;28;20025;-86
2021/01/31 17:18:40;;;;;;;18.57;12.13;;;3.90;99.90;;;;;;5010697;28;20030;-86
2021/01/31 17:21:06;;;;;;;18.77;11.50;;;3.90;99.90;;;;;;5011413;28;20022;-86
2021/01/31 17:23:32;;;;;;;19.00;11.43;;;3.80;99.90;;;;;;5015885;28;20671;-86
2021/01/31 17:25:57;;;;;;;16.90;11.17;;;3.70;99.90;;;;;;5015460;28;20733;-86
2021/01/31 17:28:23;;;;;;;18.70;12.07;;;3.70;99.90;;;;;;5009975;28;20026;-87
2021/01/31 17:30:52;;;;;;;18.57;11.97;;;3.70;99.90;;;;;;5015338;28;20031;-86
2021/01/31 17:33:18;;;;;;;20.03;12.23;;;3.70;99.90;;;;;;5002221;28;20079;-86
2021/01/31 17:35:43;;;;;;;17.67;11.40;;;3.80;99.90;;;;;;5010144;28;20019;-86
2021/01/31 17:38:11;;;;;;;20.50;12.13;;;3.80;99.90;;;;;;5002317;28;20029;-86
2021/01/31 17:40:37;;;;;;;20.50;12.73;;;3.80;99.90;;;;;;5012379;28;20631;-87
2021/01/31 17:43:02;;;;;;;20.07;12.07;;;3.70;99.90;;;;;;5007519;28;20508;-86
2021/01/31 17:45:29;;;;;;;22.23;12.87;;;3.70;99.90;;;;;;5025772;28;20107;-86
2021/01/31 17:47:56;;;;;;;22.17;13.23;;;3.60;99.90;;;;;;5009555;28;20025;-87
2021/01/31 17:50:26;;;;;;;20.73;12.63;;;3.60;99.90;;;;;;5012525;28;20496;-86
2021/01/31 17:52:51;;;;;;;23.80;13.13;;;3.60;99.90;;;;;;5009469;28;20386;-86
2021/01/31 17:55:20;;;;;;;21.30;13.23;;;3.60;99.90;;;;;;5010645;28;20022;-86
2021/01/31 17:57:50;;;;;;;25.90;13.73;;;3.60;99.90;;;;;;5011250;28;20025;-86
2021/01/31 18:00:22;;;;;;;21.33;13.60;;;3.60;99.90;;;;;;5012067;28;20073;-87
2021/01/31 18:02:48;;;;;;;23.43;14.50;;;3.70;99.90;;;;;;5026155;28;20051;-86
2021/01/31 18:05:15;;;;;;;23.10;13.70;;;3.70;99.90;;;;;;5034162;28;20048;-86
2021/01/31 18:07:42;;;;;;;22.20;13.43;;;3.80;99.90;;;;;;5005710;28;20123;-86
2021/01/31 18:10:09;;;;;;;21.37;12.73;;;3.70;99.90;;;;;;5029024;28;20106;-88
2021/01/31 18:12:36;;;;;;;20.67;12.87;;;3.70;99.90;;;;;;5006872;28;20041;-86
2021/01/31 18:15:04;;;;;;;20.77;13.47;;;3.70;99.90;;;;;;5011225;28;20025;-87
2021/01/31 18:17:31;;;;;;;22.63;14.00;;;3.70;99.90;;;;;;5004839;28;20026;-87
2021/01/31 18:19:58;;;;;;;22.53;14.20;;;3.70;99.90;;;;;;5032152;28;20069;-87
2021/01/31 18:22:24;;;;;;;21.83;13.43;;;3.70;99.90;;;;;;5015767;28;20130;-86
2021/01/31 18:24:50;;;;;;;23.17;13.87;;;3.70;99.90;;;;;;5013380;28;20482;-86
2021/01/31 18:27:16;;;;;;;24.37;14.20;;;3.70;99.90;;;;;;5026336;28;20017;-86
2021/01/31 18:29:45;;;;;;;22.47;13.87;;;3.70;99.90;;;;;;5030719;28;20021;-86
2021/01/31 18:32:11;;;;;;;22.73;14.57;;;3.80;99.90;;;;;;5008695;28;20348;-87
2021/01/31 18:34:38;;;;;;;22.47;14.03;;;3.80;99.90;;;;;;5011347;28;20106;-87
2021/01/31 18:37:04;;;;;;;23.73;13.50;;;3.80;99.90;;;;;;5015728;28;20026;-86
2021/01/31 18:39:30;;;;;;;23.67;14.33;;;3.70;99.90;;;;;;5010664;28;20041;-86
2021/01/31 18:41:55;;;;;;;22.60;14.27;;;3.80;99.90;;;;;;5005117;28;20029;-87
2021/01/31 18:44:21;;;;;;;24.63;14.13;;;3.80;99.90;;;;;;5005746;28;20057;-86
2021/01/31 18:46:48;;;;;;;24.50;14.60;;;3.70;99.90;;;;;;5007256;28;20033;-87
2021/01/31 18:49:14;;;;;;;25.73;13.97;;;3.70;99.90;;;;;;5011203;28;20030;-86
2021/01/31 18:51:41;;;;;;;23.07;14.00;;;3.60;99.90;;;;;;5004713;28;20041;-85
2021/01/31 18:54:07;;;;;;;26.07;14.70;;;3.60;99.90;;;;;;5013602;28;20025;-86
2021/01/31 18:56:33;;;;;;;25.20;14.43;;;3.60;99.90;;;;;;5003835;28;20044;-86
2021/01/31 18:58:59;;;;;;;24.17;14.10;;;3.60;99.90;;;;;;5009939;28;20394;-86
2021/01/31 19:01:25;;;;;;;24.80;14.13;;;3.50;99.90;;;;;;5002983;28;20057;-86
2021/01/31 19:03:51;;;;;;;25.77;14.53;;;3.60;99.90;;;;;;5009412;28;20056;-87
2021/01/31 19:06:17;;;;;;;24.53;14.77;;;3.50;99.90;;;;;;5010101;28;20076;-87
2021/01/31 19:08:43;;;;;;;23.60;14.43;;;3.50;99.90;;;;;;5011788;28;20109;-87
2021/01/31 19:11:09;;;;;;;25.10;14.40;;;3.50;99.90;;;;;;5017694;28;20036;-87
2021/01/31 19:13:38;;;;;;;24.83;14.47;;;3.50;99.90;;;;;;5006229;28;20029;-87
2021/01/31 19:16:04;;;;;;;21.03;13.13;;;3.50;99.90;;;;;;5005257;28;20057;-87
2021/01/31 19:18:30;;;;;;;23.63;13.93;;;3.40;99.90;;;;;;5003102;28;20616;-87
2021/01/31 19:20:56;;;;;;;24.77;14.13;;;3.40;99.90;;;;;;5009479;28;20029;-88
2021/01/31 19:23:22;;;;;;;26.07;14.33;;;3.40;99.90;;;;;;5010752;28;20045;-88
2021/01/31 19:25:48;;;;;;;23.90;14.77;;;3.40;99.90;;;;;;5019780;28;20033;-87
2021/01/31 19:28:16;;;;;;;22.50;13.93;;;3.40;99.90;;;;;;5007004;28;20041;-87
2021/01/31 19:30:44;;;;;;;24.07;14.90;;;3.30;99.90;;;;;;5023947;28;20104;-87
2021/01/31 19:33:10;;;;;;;24.63;14.27;;;3.30;99.90;;;;;;5008481;28;20026;-87
2021/01/31 19:35:36;;;;;;;25.23;14.50;;;3.30;99.90;;;;;;5011681;28;20021;-87
2021/01/31 19:38:03;;;;;;;24.87;14.80;;;3.30;99.90;;;;;;5015105;28;20359;-87
2021/01/31 19:40:28;;;;;;;28.67;15.70;;;3.30;99.90;;;;;;5013488;28;20103;-88
2021/01/31 19:42:54;;;;;;;23.13;14.20;;;3.30;99.90;;;;;;5008126;28;20068;-88
2021/01/31 19:45:24;;;;;;;24.13;15.07;;;3.30;99.90;;;;;;5009952;28;20026;-87
2021/01/31 19:47:50;;;;;;;24.37;14.27;;;3.30;99.90;;;;;;5032635;28;20057;-87
2021/01/31 19:50:17;;;;;;;22.70;14.30;;;3.20;99.90;;;;;;5011752;28;20057;-87
2021/01/31 19:52:43;;;;;;;23.43;14.37;;;3.20;99.90;;;;;;5007436;28;20544;-86
2021/01/31 19:55:10;;;;;;;28.00;15.80;;;3.20;99.90;;;;;;5008339;28;20026;-87
2021/01/31 19:57:36;;;;;;;26.00;14.73;;;3.10;99.90;;;;;;5012048;28;20112;-88
2021/01/31 20:00:09;;;;;;;26.10;14.40;;;3.10;99.90;;;;;;5015307;28;20076;-87
2021/01/31 20:02:35;;;;;;;25.67;15.80;;;3.10;99.90;;;;;;5016576;28;20026;-87
2021/01/31 20:05:00;;;;;;;23.67;15.20;;;3.10;99.90;;;;;;5013628;28;20032;-87
2021/01/31 20:07:27;;;;;;;25.07;15.60;;;3.10;99.90;;;;;;5012178;28;20064;-88
2021/01/31 20:09:54;;;;;;;28.73;15.77;;;3.10;99.90;;;;;;5006178;28;20025;-87
2021/01/31 20:12:20;;;;;;;25.07;15.57;;;3.10;99.90;;;;;;5011525;28;20103;-88
2021/01/31 20:14:45;;;;;;;26.13;15.87;;;3.20;99.90;;;;;;5026071;28;20411;-87
2021/01/31 20:17:11;;;;;;;28.83;16.63;;;3.20;99.90;;;;;;5007416;28;20032;-87
2021/01/31 20:19:41;;;;;;;26.63;15.97;;;3.10;99.90;;;;;;5008142;28;20587;-87
2021/01/31 20:22:06;;;;;;;29.13;16.37;;;3.20;99.90;;;;;;5014329;28;20104;-87
2021/01/31 20:24:32;;;;;;;27.50;16.47;;;3.10;99.90;;;;;;5012590;28;20107;-87
2021/01/31 20:26:58;;;;;;;27.00;15.63;;;3.20;99.90;;;;;;5008561;28;20029;-87
2021/01/31 20:29:23;;;;;;;28.03;16.40;;;3.20;99.90;;;;;;5010227;28;20022;-87
2021/01/31 20:31:50;;;;;;;27.87;15.93;;;3.20;99.90;;;;;;5027028;28;20044;-87
2021/01/31 20:34:16;;;;;;;26.67;15.93;;;3.20;99.90;;;;;;5002532;28;20056;-87
2021/01/31 20:36:42;;;;;;;24.43;15.43;;;3.30;99.90;;;;;;5008255;28;20463;-86
2021/01/31 20:39:08;;;;;;;22.90;14.83;;;3.30;99.90;;;;;;5015373;28;20026;-87
2021/01/31 20:41:34;;;;;;;25.10;15.60;;;3.30;99.90;;;;;;5019964;28;20022;-87
2021/01/31 20:44:00;;;;;;;23.93;13.70;;;3.30;99.90;;;;;;5006798;28;20241;-87
2021/01/31 20:46:26;;;;;;;25.23;15.43;;;3.20;99.90;;;;;;5025088;28;20025;-88
2021/01/31 20:48:53;;;;;;;23.93;14.97;;;3.20;99.90;;;;;;5028969;28;20021;-87
2021/01/31 20:51:19;;;;;;;23.70;13.87;;;3.20;99.90;;;;;;5007990;28;20029;-87
2021/01/31 20:53:46;;;;;;;25.27;15.33;;;3.20;99.90;;;;;;5009545;28;20097;-87
2021/01/31 20:56:13;;;;;;;24.70;15.20;;;3.20;99.90;;;;;;5015383;28;20372;-87
2021/01/31 20:58:39;;;;;;;26.20;15.30;;;3.20;99.90;;;;;;5011141;28;20142;-87
2021/01/31 21:01:06;;;;;;;23.23;14.13;;;3.20;99.90;;;;;;5027255;28;20026;-87
2021/01/31 21:03:32;;;;;;;22.83;14.27;;;3.30;99.90;;;;;;5011045;28;20036;-87
2021/01/31 21:05:58;;;;;;;23.37;13.60;;;3.20;99.90;;;;;;5014518;28;20025;-87
2021/01/31 21:08:23;;;;;;;23.40;14.47;;;3.20;99.90;;;;;;5009445;28;20026;-87
2021/01/31 21:10:50;;;;;;;24.30;14.57;;;3.20;99.90;;;;;;5016402;28;20552;-87
2021/01/31 21:13:16;;;;;;;23.83;13.23;;;3.20;99.90;;;;;;5018918;28;20052;-87
2021/01/31 21:15:42;;;;;;;22.73;14.53;;;3.20;99.90;;;;;;5022207;28;20442;-87
2021/01/31 21:18:12;;;;;;;26.27;14.17;;;3.20;99.90;;;;;;5009466;28;20026;-87
2021/01/31 21:20:38;;;;;;;25.77;14.60;;;3.10;99.90;;;;;;5020525;28;20063;-87
2021/01/31 21:23:04;;;;;;;23.00;14.50;;;3.20;99.90;;;;;;5015533;28;20043;-87
2021/01/31 21:25:31;;;;;;;24.47;13.93;;;3.30;99.90;;;;;;5022798;28;20036;-87
2021/01/31 21:27:57;;;;;;;22.10;13.53;;;3.20;99.90;;;;;;5006337;28;20041;-87
2021/01/31 21:30:24;;;;;;;25.23;14.20;;;3.20;99.90;;;;;;5014283;28;20554;-87
2021/01/31 21:32:49;;;;;;;21.60;12.80;;;3.20;99.90;;;;;;5022627;28;20025;-87
2021/01/31 21:35:16;;;;;;;23.87;13.87;;;3.20;99.90;;;;;;5034226;28;20030;-87
2021/01/31 21:37:42;;;;;;;21.57;13.50;;;3.30;99.90;;;;;;5016264;28;20022;-87
2021/01/31 21:40:10;;;;;;;22.43;13.97;;;3.20;99.90;;;;;;5030645;28;20080;-88
2021/01/31 21:42:36;;;;;;;22.77;13.67;;;3.20;99.90;;;;;;5019510;28;20021;-87
2021/01/31 21:45:05;;;;;;;24.07;14.67;;;3.20;99.90;;;;;;5014487;28;20040;-87
2021/01/31 21:47:31;;;;;;;23.63;12.73;;;3.20;99.90;;;;;;5015450;28;20088;-87
2021/01/31 21:49:56;;;;;;;21.80;13.60;;;3.20;99.90;;;;;;5041372;28;20116;-87
2021/01/31 21:52:22;;;;;;;22.00;13.57;;;3.20;99.90;;;;;;5014701;28;20022;-87
2021/01/31 21:54:48;;;;;;;22.73;14.00;;;3.30;99.90;;;;;;5034259;28;20033;-87
2021/01/31 21:57:15;;;;;;;21.67;13.40;;;3.30;99.90;;;;;;5009308;28;20026;-88
2021/01/31 21:59:41;;;;;;;22.90;13.83;;;3.20;99.90;;;;;;5011302;28;20032;-87
2021/01/31 22:02:06;;;;;;;23.00;13.23;;;3.20;99.90;;;;;;5013463;28;20021;-87
2021/01/31 22:04:32;;;;;;;22.37;13.00;;;3.20;99.90;;;;;;5015662;28;20037;-87
2021/01/31 22:06:57;;;;;;;22.47;13.97;;;3.20;99.90;;;;;;5017798;28;20029;-87
2021/01/31 22:09:23;;;;;;;21.77;13.47;;;3.20;99.90;;;;;;5015968;28;20025;-87
2021/01/31 22:11:48;;;;;;;21.83;12.87;;;3.20;99.90;;;;;;5035133;28;20029;-87
2021/01/31 22:14:15;;;;;;;23.60;13.60;;;3.20;99.90;;;;;;5022189;28;20025;-88
2021/01/31 22:16:41;;;;;;;22.40;13.50;;;3.10;99.90;;;;;;5012114;28;20033;-87
2021/01/31 22:19:07;;;;;;;21.50;12.93;;;3.20;99.90;;;;;;5034766;28;20028;-87
2021/01/31 22:21:33;;;;;;;21.50;13.13;;;3.20;99.90;;;;;;5016210;28;20021;-87
2021/01/31 22:23:59;;;;;;;21.87;13.37;;;3.10;99.90;;;;;;5013293;28;20025;-88
2021/01/31 22:26:24;;;;;;;23.70;13.57;;;3.10;99.90;;;;;;5031744;28;20100;-87
2021/01/31 22:28:50;;;;;;;24.50;13.20;;;3.10;99.90;;;;;;5016059;28;20049;-88
2021/01/31 22:31:16;;;;;;;23.00;14.03;;;3.10;99.90;;;;;;5020906;28;20039;-88
2021/01/31 22:33:41;;;;;;;21.73;13.83;;;3.00;99.90;;;;;;5045131;28;20026;-87
2021/01/31 22:36:07;;;;;;;21.20;13.37;;;3.10;99.90;;;;;;5017373;28;20048;-88
2021/01/31 22:38:33;;;;;;;23.57;14.37;;;3.10;99.90;;;;;;5024177;28;20079;-86
2021/01/31 22:40:58;;;;;;;23.83;14.83;;;3.10;99.90;;;;;;5016804;28;20116;-87
2021/01/31 22:43:24;;;;;;;23.63;13.73;;;3.10;99.90;;;;;;5012251;28;20124;-88
2021/01/31 22:45:50;;;;;;;23.43;14.67;;;3.10;99.90;;;;;;5014462;28;20116;-87
2021/01/31 22:48:15;;;;;;;24.50;13.80;;;3.10;99.90;;;;;;5008893;28;20033;-87
2021/01/31 22:50:43;;;;;;;22.80;14.07;;;3.10;99.90;;;;;;5022426;28;20045;-87
2021/01/31 22:53:09;;;;;;;22.53;13.80;;;3.10;99.90;;;;;;5019683;28;20105;-87
2021/01/31 22:55:35;;;;;;;22.60;13.50;;;3.10;99.90;;;;;;5015373;28;20111;-87
2021/01/31 22:58:01;;;;;;;25.90;14.70;;;3.20;99.90;;;;;;5016210;28;20021;-88
2021/01/31 23:00:39;;;;;;;26.27;15.17;;;3.20;99.90;;;;;;5016573;28;20037;-88
2021/01/31 23:03:12;;;;;;;24.40;13.90;;;3.10;99.90;;;;;;5028604;28;20038;-87
2021/01/31 23:05:41;;;;;;;25.47;14.20;;;3.10;99.90;;;;;;5014002;28;20045;-88
2021/01/31 23:08:09;;;;;;;26.97;15.03;;;3.10;99.90;;;;;;5016119;28;20036;-88
2021/01/31 23:10:35;;;;;;;27.60;15.53;;;3.10;99.90;;;;;;5016873;28;20445;-87
2021/01/31 23:13:05;;;;;;;27.17;15.77;;;3.10;99.90;;;;;;5012088;28;20434;-87
2021/01/31 23:15:31;;;;;;;27.23;15.10;;;3.10;99.90;;;;;;5013191;28;20034;-88
2021/01/31 23:17:57;;;;;;;28.10;15.63;;;3.10;99.90;;;;;;5012106;28;20036;-87
2021/01/31 23:20:23;;;;;;;23.80;14.23;;;3.10;99.90;;;;;;5022420;28;20052;-88
2021/01/31 23:22:49;;;;;;;25.73;14.77;;;3.10;99.90;;;;;;5023108;28;20033;-88
2021/01/31 23:25:22;;;;;;;24.53;14.57;;;3.10;99.90;;;;;;5015404;28;20021;-87
2021/01/31 23:27:47;;;;;;;;;;;3.10;99.90;;;;;;5014643;28;20390;-87
2021/01/31 23:30:17;;;;;;;27.30;14.40;;;3.10;99.90;;;;;;5012645;28;19917;-88
2021/01/31 23:32:43;;;;;;;27.83;15.13;;;3.00;99.90;;;;;;5031428;28;20033;-87
2021/01/31 23:35:09;;;;;;;25.50;14.83;;;3.00;99.90;;;;;;5009505;28;20033;-88
2021/01/31 23:37:35;;;;;;;27.73;15.07;;;3.00;99.90;;;;;;5015975;28;20041;-88
2021/01/31 23:40:01;;;;;;;28.37;15.03;;;3.00;99.90;;;;;;5015946;28;20048;-88
2021/01/31 23:42:26;;;;;;;26.90;15.73;;;2.90;99.90;;;;;;5034112;28;20043;-87
2021/01/31 23:44:52;;;;;;;27.67;14.93;;;3.00;99.90;;;;;;5016697;28;20021;-87
2021/01/31 23:47:18;;;;;;;29.87;15.47;;;3.00;99.90;;;;;;5016884;28;20025;-87
2021/01/31 23:49:43;;;;;;;29.07;15.67;;;2.90;99.90;;;;;;5034051;28;20028;-88
2021/01/31 23:52:09;;;;;;;28.20;15.63;;;2.90;99.90;;;;;;5013216;28;20042;-88
2021/01/31 23:54:34;;;;;;;28.70;15.80;;;3.00;99.90;;;;;;5009518;28;20025;-88
2021/01/31 23:57:00;;;;;;;30.13;16.27;;;2.90;99.90;;;;;;5015990;28;20029;-87
2021/01/31 23:59:26;;;;;;;27.60;15.90;;;2.90;99.90;;;;;;5007071;28;20080;-88
